Flight Track Log - Related Links

Times and Time Zones

All times are in EDT time to prevent confusion due to time zone crossing. See the SWA378 flight status page for this flight to view local times or setup timezone preferences in your user account.

Time Position Orientation Groundspeed Altitude Reporting Facility
EDT Latitude Longitude Course Direction KTS MPH feet Rate Location/Type
Wed 11:41:50 AM 37.4000 -121.9667 141° Southeast 179 206 2,300  Level Northern Cal TRACON
Wed 11:42:50 AM 37.4333 -121.9333 38° Northeast 251 289 5,000 1,080 Climbing Northern Cal TRACON
Wed 11:44:20 AM 37.3711 -121.8353 129° Southeast 249 287 5,000 1,382 Level Oakland Center
Wed 11:45:22 AM 37.3131 -121.7700 138° Southeast 271 312 8,500 3,122 Climbing Oakland Center
Wed 11:46:23 AM 37.2492 -121.6972 138° Southeast 298 343 11,400 3,073 Climbing Oakland Center
Wed 11:47:00 AM 36.9254 -121.4554 141° Southeast  Level Estimated
Wed 11:47:25 AM 37.1750 -121.6122 138° Southeast 347 399 14,800  Level Oakland Center
Wed 11:48:27 AM 37.0961 -121.5239 138° Southeast 371 427 18,000 2,976 Climbing Oakland Center
Wed 11:49:28 AM 37.0122 -121.4339 139° Southeast 391 450 20,900 2,780 Climbing Oakland Center
Wed 11:50:30 AM 36.9233 -121.3353 138° Southeast 415 478 23,700 2,634 Climbing Oakland Center
Wed 11:51:31 AM 36.8319 -121.2369 139° Southeast 430 495 26,300 2,439 Climbing Oakland Center
Wed 11:52:33 AM 36.7178 -121.1142 139° Southeast 442 509 28,700 2,146 Climbing Oakland Center
Wed 11:53:34 AM 36.6197 -121.0097 139° Southeast 452 520 30,700 2,000 Climbing Oakland Center
Wed 11:54:36 AM 36.5206 -120.9006 138° Southeast 481 554 32,800 2,049 Climbing Oakland Center
Wed 11:55:37 AM 36.4214 -120.7944 139° Southeast 470 541 34,900 2,098 Climbing Oakland Center
Wed 11:56:39 AM 36.3272 -120.6919 139° Southeast 462 532 37,100 1,887 Climbing Oakland Center
Wed 11:57:41 AM 36.2339 -120.5869 138° Southeast 460 529 38,800 927 Climbing Oakland Center
Wed 11:58:42 AM 36.1397 -120.4894 140° Southeast 437 503 39,000 98 Climbing Oakland Center
Wed 11:59:44 AM 36.0433 -120.3914 141° Southeast 437 503 39,000  Level Oakland Center
Wed 12:00:45 PM 35.9469 -120.2903 140° Southeast 449 517 39,000  Level Oakland Center
Wed 12:01:47 PM 35.8339 -120.1725 140° Southeast 442 509 39,000  Level Oakland Center
Wed 12:02:48 PM 35.7403 -120.0758 140° Southeast 435 501 39,000  Level Oakland Center
Wed 12:03:50 PM 35.6442 -119.9775 140° Southeast 444 511 39,000  Level Oakland Center
Wed 12:04:51 PM 35.5422 -119.8883 145° Southeast 446 513 39,000  Level Oakland Center
Wed 12:05:53 PM 35.4403 -119.8000 145° Southeast 446 513 39,000 -49 Level Oakland Center
Wed 12:06:54 PM 35.3381 -119.7125 145° Southeast 446 513 38,900 -234 Descending Oakland Center
Wed 12:07:10 PM 35.3178 -119.6947 144° Southeast 446 513 38,700 -923 Descending Los Angeles Center
Wed 12:08:12 PM 35.2150 -119.6056 145° Southeast 449 517 37,700 -2,129 Descending Los Angeles Center
Wed 12:09:14 PM 35.0897 -119.4994 145° Southeast 454 522 34,300 -3,145 Descending Los Angeles Center
Wed 12:10:16 PM 34.9839 -119.4089 145° Southeast 461 531 31,200 -2,688 Descending Los Angeles Center
Wed 12:11:19 PM 34.8800 -119.3203 145° Southeast 458 527 28,700 -2,352 Descending Los Angeles Center
Wed 12:12:21 PM 34.7786 -119.2347 145° Southeast 445 512 26,300 -2,323 Descending Los Angeles Center
Wed 12:13:23 PM 34.6797 -119.1514 145° Southeast 434 499 23,900 -2,371 Descending Los Angeles Center
Wed 12:14:25 PM 34.5694 -119.0608 146° Southeast 423 487 21,400 -2,274 Descending Los Angeles Center
Wed 12:15:27 PM 34.4769 -118.9833 145° Southeast 407 468 19,200 -2,129 Descending Los Angeles Center
Wed 12:16:29 PM 34.3872 -118.9081 145° Southeast 395 455 17,000 -2,177 Descending Los Angeles Center
Wed 12:17:31 PM 34.2908 -118.8572 156° South 380 437 14,700 -2,160 Descending Los Angeles Center
Wed 12:18:34 PM 34.1722 -118.8144 163° South 371 427 12,500 -1,488 Descending Los Angeles Center
Wed 12:19:36 PM 34.0842 -118.7808 162° South 334 384 11,600 -968 Descending Los Angeles Center
Wed 12:20:38 PM 34.0331 -118.7069 130° Southeast 304 350 10,500 -871 Descending Los Angeles Center
Wed 12:21:40 PM 34.0239 -118.6025 96° East 288 331 9,800 -774 Descending Los Angeles Center
Wed 12:22:42 PM 34.0156 -118.5181 97° East 256 295 8,900 -919 Descending Los Angeles Center
Wed 12:23:44 PM 34.0106 -118.4439 95° East 247 284 7,900 -1,113 Descending Los Angeles Center
Wed 12:24:46 PM 34.0233 -118.3469 81° East 244 281 6,600 -1,152 Descending Los Angeles Center
Wed 12:25:49 PM 34.0314 -118.2658 83° East 244 281 5,500 -1,344 Descending Los Angeles Center
Wed 12:26:51 PM 34.0397 -118.1928 82° East 228 262 3,800 -1,403 Descending Los Angeles Center
Wed 12:27:53 PM 34.0456 -118.1344 83° East 195 224 2,600 -581 Descending Los Angeles Center
Wed 12:28:55 PM 33.9964 -118.1242 170° South 184 212 2,600 -217 Level Los Angeles Center
Wed 12:29:16 PM 33.9833 -118.1500 239° Southwest 187 215 2,300 -387 Descending Southern California TRACON
Wed 12:29:57 PM 33.9756 -118.1786 252° West 185 213 2,200 -58 Descending Los Angeles Center
Wed 12:30:59 PM 33.9669 -118.2536 262° West 187 215 2,200 -242 Level Los Angeles Center
Wed 12:32:01 PM 33.9631 -118.3044 265° West 170 196 1,700 -581 Descending Los Angeles Center
Wed 12:33:03 PM 33.9578 -118.3494 262° West 149 171 1,000 -720 Descending Los Angeles Center
Wed 12:34:06 PM 33.9533 -118.3958 263° West 143 165 200 -762 Descending Los Angeles Center
Wed 12:36:00 PM 33.9333 -118.4000 246° West  Level FlightAware Approximate
Wed 12:43:00 PM 33.9425 -118.4081 246° West  Level Estimated

Login

Don't have an account? Register now (free) for customized features, flight alerts, and more!